Time;durP1;ratioP1;P1;durP2;ratioP2;P2;SDS_P1;SDS_P2;PMS_P1;PMS_P2;Temp;Humidity;BMP_temperature;BMP_pressure;BME280_temperature;BME280_humidity;BME280_pressure;Samples;Min_cycle;Max_cycle;Signal;HPM_P1;HPM_P2
2023/03/18 00:00:37;;;;;;;;;;;;;;;4.87;60.08;99503.47;5018688;28;4836;-77
2023/03/18 00:03:04;;;;;;;;;;;;;;;4.83;60.12;99497.72;5016412;28;4982;-77
2023/03/18 00:05:30;;;;;;;;;;;;;;;4.81;60.23;99506.97;5005397;28;4892;-77
2023/03/18 00:07:57;;;;;;;;;;;;;;;4.83;60.27;99505.72;4999624;28;3912;-76
2023/03/18 00:10:24;;;;;;;;;;;;;;;4.83;60.36;99508.41;5018659;28;4854;-77
2023/03/18 00:12:52;;;;;;;;;;;;;;;4.81;60.42;99505.13;5014983;28;4871;-77
2023/03/18 00:15:18;;;;;;;;;;;;;;;4.86;60.19;99509.84;5017660;28;4673;-76
2023/03/18 00:17:45;;;;;;;;;;;;;;;4.83;60.30;99505.72;5001710;28;4800;-77
2023/03/18 00:20:12;;;;;;;;;;;;;;;4.83;60.18;99503.06;5016611;28;4668;-78
2023/03/18 00:22:39;;;;;;;;;;;;;;;4.82;60.26;99497.94;5018518;28;4926;-77
2023/03/18 00:25:05;;;;;;;;;;;;;;;4.82;60.38;99503.25;5018740;28;4134;-77
2023/03/18 00:27:32;;;;;;;;;;;;;;;4.83;60.49;99500.41;5017186;28;5036;-78
2023/03/18 00:29:59;;;;;;;;;;;;;;;4.83;60.38;99505.72;5016326;28;4910;-77
2023/03/18 00:32:26;;;;;;;;;;;;;;;4.89;59.96;99504.09;5001022;28;4728;-77
2023/03/18 00:34:53;;;;;;;;;;;;;;;4.88;60.17;99502.44;4994316;28;5048;-77
2023/03/18 00:37:29;;;;;;;;;;;;;;;4.83;60.45;99513.75;4985355;28;4767;-77
2023/03/18 00:39:55;;;;;;;;;;;;;;;4.81;60.44;99513.13;5004022;28;4834;-77
2023/03/18 00:42:22;;;;;;;;;;;;;;;4.80;60.34;99505.34;5005199;28;3890;-78
2023/03/18 00:44:49;;;;;;;;;;;;;;;4.78;60.54;99505.53;5001951;28;4811;-78
2023/03/18 00:47:16;;;;;;;;;;;;;;;4.78;60.56;99513.53;5002787;28;4880;-78
2023/03/18 00:49:42;;;;;;;;;;;;;;;4.80;60.38;99518.69;4997737;28;4811;-78
2023/03/18 00:52:09;;;;;;;;;;;;;;;4.79;60.44;99509.81;5011704;28;4740;-77
2023/03/18 00:54:36;;;;;;;;;;;;;;;4.79;60.34;99509.81;5008305;28;4145;-76
2023/03/18 00:57:02;;;;;;;;;;;;;;;4.84;60.14;99503.88;4999335;28;5028;-77
2023/03/18 00:59:29;;;;;;;;;;;;;;;4.85;60.04;99508.19;4984432;28;4914;-78
2023/03/18 01:01:55;;;;;;;;;;;;;;;4.81;60.42;99506.97;5003623;28;5064;-77
2023/03/18 01:04:22;;;;;;;;;;;;;;;4.79;60.70;99507.16;4990956;28;4727;-76
2023/03/18 01:06:48;;;;;;;;;;;;;;;4.80;60.48;99508.81;5002997;28;4722;-77
2023/03/18 01:09:15;;;;;;;;;;;;;;;4.77;60.61;99510.06;4985908;28;4804;-77
2023/03/18 01:11:42;;;;;;;;;;;;;;;4.83;60.52;99499.59;5008557;28;4855;-76
2023/03/18 01:14:09;;;;;;;;;;;;;;;4.77;60.49;99503.91;5005061;28;4020;-76
2023/03/18 01:16:36;;;;;;;;;;;;;;;4.78;60.44;99502.88;5002807;28;5271;-75
2023/03/18 01:19:03;;;;;;;;;;;;;;;4.77;60.50;99515.38;5004142;28;4534;-76
2023/03/18 01:21:29;;;;;;;;;;;;;;;4.76;60.53;99513.75;4990781;28;5003;-76
2023/03/18 01:23:56;;;;;;;;;;;;;;;4.76;60.50;99516.44;4995466;28;4575;-76
2023/03/18 01:26:24;;;;;;;;;;;;;;;4.77;60.41;99519.91;5000748;28;5079;-76
2023/03/18 01:28:51;;;;;;;;;;;;;;;4.78;60.54;99510.88;4980598;28;5275;-75
2023/03/18 01:31:18;;;;;;;;;;;;;;;4.77;60.60;99515.38;5001190;28;4932;-76
2023/03/18 01:33:44;;;;;;;;;;;;;;;4.75;60.66;99517.44;4984335;28;4556;-76
2023/03/18 01:36:11;;;;;;;;;;;;;;;4.74;60.86;99515.00;5004451;28;4947;-75
2023/03/18 01:38:37;;;;;;;;;;;;;;;4.75;60.71;99511.28;5002256;28;4705;-76
2023/03/18 01:41:04;;;;;;;;;;;;;;;4.74;60.48;99506.97;4983485;28;4688;-75
2023/03/18 01:43:30;;;;;;;;;;;;;;;4.76;60.63;99508.41;5000236;28;3898;-80
2023/03/18 01:45:57;;;;;;;;;;;;;;;4.78;60.32;99506.34;5006860;28;4724;-78
2023/03/18 01:48:24;;;;;;;;;;;;;;;4.79;60.48;99509.81;4981255;28;4932;-79
2023/03/18 01:50:51;;;;;;;;;;;;;;;4.81;60.61;99502.44;5008929;28;4821;-79
2023/03/18 01:53:18;;;;;;;;;;;;;;;4.75;60.73;99509.44;5016087;28;4964;-79
2023/03/18 01:55:44;;;;;;;;;;;;;;;4.74;60.78;99515.81;5004056;28;4823;-79
2023/03/18 01:58:11;;;;;;;;;;;;;;;4.73;60.80;99524.81;4984139;28;4096;-78
2023/03/18 02:00:38;;;;;;;;;;;;;;;4.75;60.62;99520.09;5003682;28;4634;-77
2023/03/18 02:03:05;;;;;;;;;;;;;;;4.72;60.80;99512.50;4985143;28;4676;-80
2023/03/18 02:05:31;;;;;;;;;;;;;;;4.75;60.84;99508.63;4989166;28;4912;-77
2023/03/18 02:07:58;;;;;;;;;;;;;;;4.71;61.03;99513.53;5007491;28;4554;-77
2023/03/18 02:10:24;;;;;;;;;;;;;;;4.69;60.96;99515.59;5002933;28;4153;-77
2023/03/18 02:12:51;;;;;;;;;;;;;;;4.71;60.98;99516.22;5005480;28;4891;-76
2023/03/18 02:15:18;;;;;;;;;;;;;;;4.77;60.80;99515.38;5003246;28;4678;-79
2023/03/18 02:17:45;;;;;;;;;;;;;;;4.76;60.81;99518.25;4987096;28;4720;-79
2023/03/18 02:20:11;;;;;;;;;;;;;;;4.73;60.83;99513.31;5002184;28;4845;-79
2023/03/18 02:22:38;;;;;;;;;;;;;;;4.73;60.65;99518.66;5008970;28;4850;-79
2023/03/18 02:25:05;;;;;;;;;;;;;;;4.72;60.85;99509.03;5001214;28;4921;-79
2023/03/18 02:27:32;;;;;;;;;;;;;;;4.71;60.76;99515.41;5003459;28;4486;-78
2023/03/18 02:29:58;;;;;;;;;;;;;;;4.73;60.87;99516.00;5004900;28;4633;-79
2023/03/18 02:32:25;;;;;;;;;;;;;;;4.72;60.95;99520.50;4986054;28;4626;-78
2023/03/18 02:34:52;;;;;;;;;;;;;;;4.71;61.00;99520.72;5000792;28;4590;-79
2023/03/18 02:37:18;;;;;;;;;;;;;;;4.70;61.03;99517.22;5005054;28;4870;-78
2023/03/18 02:39:45;;;;;;;;;;;;;;;4.71;61.03;99518.06;5005979;28;4614;-78
2023/03/18 02:42:11;;;;;;;;;;;;;;;4.69;60.96;99514.78;5002477;28;4913;-79
2023/03/18 02:44:38;;;;;;;;;;;;;;;4.68;61.12;99519.28;4996721;28;5201;-77
2023/03/18 02:47:05;;;;;;;;;;;;;;;4.70;61.03;99516.41;4999140;28;4875;-77
2023/03/18 02:49:31;;;;;;;;;;;;;;;4.69;61.09;99517.44;4989774;28;4799;-77
2023/03/18 02:51:58;;;;;;;;;;;;;;;4.68;61.09;99524.63;5010583;28;4469;-77
2023/03/18 02:54:25;;;;;;;;;;;;;;;4.67;61.19;99520.31;5010756;28;4659;-79
2023/03/18 02:56:52;;;;;;;;;;;;;;;4.68;61.38;99521.97;5001733;28;4739;-76
2023/03/18 02:59:18;;;;;;;;;;;;;;;4.67;60.89;99516.81;5005249;28;5069;-78
2023/03/18 03:01:45;;;;;;;;;;;;;;;4.70;61.16;99519.88;4986460;28;4679;-78
2023/03/18 03:04:12;;;;;;;;;;;;;;;4.69;61.08;99520.94;5002881;28;4415;-77
2023/03/18 03:06:39;;;;;;;;;;;;;;;4.65;61.30;99517.03;5014608;28;4825;-77
2023/03/18 03:09:05;;;;;;;;;;;;;;;4.66;61.31;99520.53;5012622;28;4972;-78
2023/03/18 03:11:32;;;;;;;;;;;;;;;4.67;61.21;99517.63;5017082;28;4808;-78
2023/03/18 03:13:59;;;;;;;;;;;;;;;4.67;61.12;99516.81;5015030;28;4787;-77
2023/03/18 03:16:25;;;;;;;;;;;;;;;4.68;61.23;99518.47;5015071;28;4874;-78
2023/03/18 03:18:52;;;;;;;;;;;;;;;4.65;61.03;99517.03;5013398;28;5035;-78
2023/03/18 03:21:18;;;;;;;;;;;;;;;4.68;61.16;99515.81;5000478;28;4703;-78
2023/03/18 03:23:45;;;;;;;;;;;;;;;4.66;61.01;99509.84;5015133;28;4763;-77
2023/03/18 03:26:11;;;;;;;;;;;;;;;4.65;61.03;99508.22;5012170;28;4754;-77
2023/03/18 03:28:38;;;;;;;;;;;;;;;4.65;61.18;99514.38;5011552;28;6887;-76
2023/03/18 03:31:05;;;;;;;;;;;;;;;4.65;61.13;99513.56;5016006;28;4894;-76
2023/03/18 03:33:32;;;;;;;;;;;;;;;4.65;61.20;99509.03;5013996;28;5038;-78
2023/03/18 03:35:58;;;;;;;;;;;;;;;4.66;61.09;99499.19;5012487;28;5004;-76
2023/03/18 03:38:25;;;;;;;;;;;;;;;4.66;61.03;99515.19;5012536;28;4830;-78
2023/03/18 03:40:52;;;;;;;;;;;;;;;4.64;60.96;99512.72;5011574;28;5029;-78
2023/03/18 03:43:19;;;;;;;;;;;;;;;4.63;61.18;99516.41;5007456;28;4844;-76
2023/03/18 03:45:45;;;;;;;;;;;;;;;4.64;61.19;99512.72;5000814;28;4491;-77
2023/03/18 03:48:13;;;;;;;;;;;;;;;4.67;61.19;99519.50;4998542;28;4837;-78
2023/03/18 03:50:40;;;;;;;;;;;;;;;4.68;61.10;99518.47;5000643;28;4884;-76
2023/03/18 03:53:06;;;;;;;;;;;;;;;4.68;61.03;99521.97;5006845;28;4547;-79
2023/03/18 03:55:34;;;;;;;;;;;;;;;4.70;60.91;99519.88;5000423;28;4576;-77
2023/03/18 03:58:01;;;;;;;;;;;;;;;4.71;61.00;99518.06;5002391;28;4868;-78
2023/03/18 04:00:27;;;;;;;;;;;;;;;4.68;61.20;99519.28;5011941;28;4878;-79
2023/03/18 04:02:54;;;;;;;;;;;;;;;4.69;61.16;99520.09;5013960;28;4803;-77
2023/03/18 04:05:20;;;;;;;;;;;;;;;4.75;60.94;99521.94;5013905;28;4756;-77
2023/03/18 04:07:47;;;;;;;;;;;;;;;4.72;60.99;99525.84;5013751;28;4964;-77
2023/03/18 04:10:13;;;;;;;;;;;;;;;4.73;60.90;99540.00;5011713;28;4810;-78
2023/03/18 04:12:44;;;;;;;;;;;;;;;4.76;60.84;99544.91;5002680;28;4413;-78
2023/03/18 04:15:32;;;;;;;;;;;;;;;4.73;60.97;99548.00;5015420;28;4695;-78
2023/03/18 04:18:24;;;;;;;;;;;;;;;4.71;61.24;99561.56;5012741;28;4981;-77
2023/03/18 04:20:51;;;;;;;;;;;;;;;4.71;60.80;99545.56;5013329;28;5112;-77
2023/03/18 04:23:18;;;;;;;;;;;;;;;4.71;61.09;99547.41;5013440;28;4910;-76
2023/03/18 04:25:44;;;;;;;;;;;;;;;4.71;61.00;99555.41;5014103;28;4729;-77
2023/03/18 04:28:11;;;;;;;;;;;;;;;4.71;61.18;99545.56;5014975;28;4929;-77
2023/03/18 04:30:37;;;;;;;;;;;;;;;4.76;60.96;99556.44;5016865;28;4796;-78
2023/03/18 04:33:04;;;;;;;;;;;;;;;4.76;61.01;99564.44;5017166;28;4697;-78
2023/03/18 04:35:36;;;;;;;;;;;;;;;4.73;60.87;99561.34;5017328;28;4782;-77
2023/03/18 04:38:03;;;;;;;;;;;;;;;4.72;60.95;99552.53;5016717;28;4824;-76
2023/03/18 04:40:30;;;;;;;;;;;;;;;4.74;60.87;99560.34;5017147;28;4712;-77
2023/03/18 04:42:56;;;;;;;;;;;;;;;4.78;60.83;99558.88;5007911;28;4647;-77
2023/03/18 04:45:23;;;;;;;;;;;;;;;4.75;60.85;99561.97;5004336;28;4562;-78
2023/03/18 04:47:50;;;;;;;;;;;;;;;4.75;60.96;99562.78;5006162;28;4740;-78
2023/03/18 04:50:17;;;;;;;;;;;;;;;4.76;61.03;99569.78;5007355;28;4937;-78
2023/03/18 04:52:47;;;;;;;;;;;;;;;4.74;61.04;99568.34;4986916;28;4872;-79
2023/03/18 04:55:15;;;;;;;;;;;;;;;4.74;61.02;99571.81;5005665;28;5143;-77
2023/03/18 04:57:45;;;;;;;;;;;;;;;4.74;61.11;99576.34;5006583;28;4522;-79
2023/03/18 05:00:12;;;;;;;;;;;;;;;4.73;61.06;99588.00;5003226;28;5001;-78
2023/03/18 05:02:39;;;;;;;;;;;;;;;4.73;60.95;99588.84;5004553;28;4899;-77
2023/03/18 05:05:06;;;;;;;;;;;;;;;4.72;61.12;99581.06;5010292;28;5126;-78
2023/03/18 05:07:33;;;;;;;;;;;;;;;4.75;61.06;99588.63;5011358;28;4018;-78
2023/03/18 05:09:59;;;;;;;;;;;;;;;4.71;61.09;99582.91;5015984;28;5021;-77
2023/03/18 05:12:26;;;;;;;;;;;;;;;4.74;61.12;99579.00;5017495;28;4693;-78
2023/03/18 05:14:52;;;;;;;;;;;;;;;4.77;60.93;99581.25;5013654;28;4680;-77
2023/03/18 05:17:19;;;;;;;;;;;;;;;4.76;61.02;99576.94;5008036;28;4744;-79
2023/03/18 05:20:05;;;;;;;;;;;;;;;4.74;61.10;99581.69;5004325;28;5160;-79
2023/03/18 05:22:32;;;;;;;;;;;;;;;4.73;61.11;99574.69;5004643;28;4579;-78
2023/03/18 05:24:58;;;;;;;;;;;;;;;4.71;61.38;99574.91;5003649;28;4496;-79
2023/03/18 05:27:26;;;;;;;;;;;;;;;4.71;61.43;99572.22;5003890;28;4592;-80
2023/03/18 05:29:52;;;;;;;;;;;;;;;4.71;61.50;99574.91;5005553;28;4751;-76
2023/03/18 05:32:19;;;;;;;;;;;;;;;4.73;61.11;99578.16;5008361;28;4978;-78
2023/03/18 05:34:46;;;;;;;;;;;;;;;4.71;61.08;99588.22;5003362;28;4841;-77
2023/03/18 05:37:12;;;;;;;;;;;;;;;4.75;60.99;99594.78;5003920;28;5714;-78
2023/03/18 05:39:39;;;;;;;;;;;;;;;4.73;61.14;99604.03;5004762;28;4774;-78
2023/03/18 05:42:05;;;;;;;;;;;;;;;4.69;61.27;99606.28;5006731;28;3942;-80
2023/03/18 05:44:32;;;;;;;;;;;;;;;4.72;61.02;99610.41;5000102;28;4696;-80
2023/03/18 05:46:59;;;;;;;;;;;;;;;4.70;61.30;99615.91;5004281;28;4576;-81
2023/03/18 05:49:27;;;;;;;;;;;;;;;4.69;61.29;99616.13;5003068;28;4695;-80
2023/03/18 05:51:53;;;;;;;;;;;;;;;4.70;61.25;99620.44;5001559;28;4967;-78
2023/03/18 05:54:20;;;;;;;;;;;;;;;4.68;61.31;99610.00;5000724;28;4464;-78
2023/03/18 05:56:47;;;;;;;;;;;;;;;4.71;61.23;99614.09;5004380;28;4789;-79
2023/03/18 05:59:29;;;;;;;;;;;;;;;4.70;61.49;99623.09;5006401;28;4850;-80
2023/03/18 06:01:55;;;;;;;;;;;;;;;4.72;60.99;99619.22;5004884;28;5061;-77
2023/03/18 06:04:23;;;;;;;;;;;;;;;4.68;61.25;99617.19;5005028;28;4847;-78
2023/03/18 06:06:50;;;;;;;;;;;;;;;4.71;61.21;99617.56;5006125;28;4788;-78
2023/03/18 06:09:16;;;;;;;;;;;;;;;4.69;61.04;99608.13;5002874;28;4491;-79
2023/03/18 06:11:43;;;;;;;;;;;;;;;4.69;61.16;99621.47;5005164;28;4613;-77
2023/03/18 06:14:30;;;;;;;;;;;;;;;4.76;61.42;99619.63;5013893;28;4690;-79
2023/03/18 06:17:17;;;;;;;;;;;;;;;4.71;61.23;99624.75;5010688;28;4807;-77
2023/03/18 06:20:09;;;;;;;;;;;;;;;4.69;61.16;99621.47;5016552;28;4996;-79
2023/03/18 06:23:01;;;;;;;;;;;;;;;4.68;61.21;99626.00;5015526;28;4851;-78
2023/03/18 06:25:27;;;;;;;;;;;;;;;4.69;61.13;99616.94;5019413;28;5227;-79
2023/03/18 06:28:14;;;;;;;;;;;;;;;4.68;61.35;99619.84;5022693;28;4876;-77
2023/03/18 06:31:01;;;;;;;;;;;;;;;4.71;61.22;99617.56;5016367;28;4987;-79
2023/03/18 06:33:48;;;;;;;;;;;;;;;4.72;61.01;99626.41;5018295;28;5185;-80
2023/03/18 06:36:35;;;;;;;;;;;;;;;4.71;61.24;99632.78;5016993;28;4713;-80
2023/03/18 06:39:22;;;;;;;;;;;;;;;4.76;61.08;99652.47;5021470;28;4807;-80
2023/03/18 06:42:09;;;;;;;;;;;;;;;4.72;61.06;99669.91;5017584;28;4727;-78
2023/03/18 06:44:56;;;;;;;;;;;;;;;4.76;60.91;99672.97;5006738;28;4579;-79
2023/03/18 06:47:42;;;;;;;;;;;;;;;4.73;61.08;99676.03;5022298;28;4841;-78
2023/03/18 06:50:30;;;;;;;;;;;;;;;4.77;61.05;99669.31;5013031;28;4798;-79
2023/03/18 06:53:17;;;;;;;;;;;;;;;4.75;61.20;99674.81;5018211;28;4700;-79
2023/03/18 06:56:04;;;;;;;;;;;;;;;4.74;60.63;99670.53;5016955;28;4878;-78
2023/03/18 06:58:53;;;;;;;;;;;;;;;4.74;61.10;99667.84;5016795;28;4782;-77
2023/03/18 07:01:41;;;;;;;;;;;;;;;4.75;61.04;99674.00;5016195;28;7278;-78
2023/03/18 07:04:07;;;;;;;;;;;;;;;4.77;60.93;99682.63;5017706;28;4937;-77
2023/03/18 07:06:59;;;;;;;;;;;;;;;4.79;60.75;99691.25;5007095;28;4594;-78
2023/03/18 07:09:25;;;;;;;;;;;;;;;4.80;60.68;99700.91;5006670;28;4788;-76
2023/03/18 07:12:06;;;;;;;;;;;;;;;4.76;60.99;99702.31;4996499;28;4589;-78
2023/03/18 07:14:33;;;;;;;;;;;;;;;4.75;61.03;99711.34;5004144;28;4877;-77
2023/03/18 07:17:01;;;;;;;;;;;;;;;4.80;61.11;99705.44;5004841;28;4997;-76
2023/03/18 07:19:27;;;;;;;;;;;;;;;4.86;60.49;99720.63;5003212;28;4914;-77
2023/03/18 07:21:54;;;;;;;;;;;;;;;4.83;60.82;99710.34;5006694;28;4148;-77
2023/03/18 07:24:21;;;;;;;;;;;;;;;4.98;60.49;99711.81;5000959;28;4907;-79
2023/03/18 07:27:13;;;;;;;;;;;;;;;4.94;60.60;99699.91;5003643;28;4913;-79
2023/03/18 07:29:40;;;;;;;;;;;;;;;4.86;60.63;99697.44;5004254;28;4849;-79
2023/03/18 07:32:07;;;;;;;;;;;;;;;4.83;60.73;99705.03;5006906;28;4828;-79
2023/03/18 07:34:33;;;;;;;;;;;;;;;4.81;60.98;99705.22;5014334;28;4752;-79
2023/03/18 07:37:00;;;;;;;;;;;;;;;4.89;60.61;99717.53;5013051;28;4623;-78
2023/03/18 07:39:26;;;;;;;;;;;;;;;4.90;60.70;99717.31;5014738;28;4880;-76
2023/03/18 07:41:53;;;;;;;;;;;;;;;4.90;60.67;99717.31;5016226;28;4737;-76
2023/03/18 07:44:20;;;;;;;;;;;;;;;4.95;60.38;99712.22;5015606;28;4783;-78
2023/03/18 07:46:46;;;;;;;;;;;;;;;5.03;60.25;99719.22;5014024;28;4760;-76
2023/03/18 07:49:13;;;;;;;;;;;;;;;5.04;60.02;99723.50;5014614;28;5564;-77
2023/03/18 07:51:40;;;;;;;;;;;;;;;5.05;60.28;99716.31;5013082;28;4960;-76
2023/03/18 07:54:06;;;;;;;;;;;;;;;4.96;60.38;99721.03;5018122;28;5102;-77
2023/03/18 07:56:33;;;;;;;;;;;;;;;4.90;60.55;99720.00;5015144;28;5395;-76
2023/03/18 07:58:59;;;;;;;;;;;;;;;4.87;60.87;99725.75;5008279;28;4708;-75
2023/03/18 08:01:26;;;;;;;;;;;;;;;4.99;60.54;99717.97;5002755;28;4676;-75
2023/03/18 08:03:54;;;;;;;;;;;;;;;4.96;60.42;99713.03;5004445;28;6235;-77
2023/03/18 08:06:21;;;;;;;;;;;;;;;4.93;60.46;99727.59;5005582;28;4769;-78
2023/03/18 08:08:48;;;;;;;;;;;;;;;5.03;60.35;99729.03;5009009;28;5141;-76
2023/03/18 08:11:15;;;;;;;;;;;;;;;5.12;59.87;99730.50;5008473;28;4795;-77
2023/03/18 08:13:41;;;;;;;;;;;;;;;5.19;59.77;99731.31;5006993;28;4263;-76
2023/03/18 08:16:08;;;;;;;;;;;;;;;5.09;60.08;99731.75;5004724;28;3934;-76
2023/03/18 08:18:34;;;;;;;;;;;;;;;5.13;59.80;99737.50;5007737;28;4993;-76
2023/03/18 08:21:01;;;;;;;;;;;;;;;5.13;59.88;99740.97;5006685;28;4736;-76
2023/03/18 08:23:28;;;;;;;;;;;;;;;5.11;59.92;99745.69;5008011;28;4740;-77
2023/03/18 08:25:54;;;;;;;;;;;;;;;5.05;59.92;99751.03;5012463;28;4902;-77
2023/03/18 08:28:45;;;;;;;;;;;;;;;5.14;60.06;99753.28;5003818;28;4774;-76
2023/03/18 08:31:13;;;;;;;;;;;;;;;5.23;59.36;99759.25;5004474;28;4580;-77
2023/03/18 08:33:40;;;;;;;;;;;;;;;5.14;59.84;99760.47;5002296;28;4812;-76
2023/03/18 08:36:07;;;;;;;;;;;;;;;5.07;60.08;99757.00;5002918;28;4818;-76
2023/03/18 08:38:33;;;;;;;;;;;;;;;5.08;60.14;99753.28;5006827;28;4915;-76
2023/03/18 08:41:00;;;;;;;;;;;;;;;5.13;59.80;99750.84;5005201;28;3953;-76
2023/03/18 08:43:27;;;;;;;;;;;;;;;5.32;59.32;99749.19;5003246;28;4747;-77
2023/03/18 08:45:53;;;;;;;;;;;;;;;5.30;59.44;99745.94;5004557;28;4747;-76
2023/03/18 08:48:20;;;;;;;;;;;;;;;5.21;59.61;99747.97;5004836;28;4894;-76
2023/03/18 08:50:47;;;;;;;;;;;;;;;5.20;59.69;99752.47;5006938;28;5064;-78
2023/03/18 08:53:39;;;;;;;;;;;;;;;5.15;59.86;99760.28;5004683;28;4754;-76
2023/03/18 08:56:06;;;;;;;;;;;;;;;5.20;59.60;99751.66;5004933;28;4876;-77
2023/03/18 08:58:33;;;;;;;;;;;;;;;5.12;60.01;99750.03;5005393;28;4107;-76
2023/03/18 09:01:02;;;;;;;;;;;;;;;5.11;60.17;99760.88;5003736;28;5031;-78
2023/03/18 09:03:29;;;;;;;;;;;;;;;5.12;59.87;99762.56;5007004;28;4992;-77
2023/03/18 09:05:56;;;;;;;;;;;;;;;5.18;59.77;99769.75;5004542;28;4990;-76
2023/03/18 09:08:24;;;;;;;;;;;;;;;5.20;59.70;99779.16;5006662;28;3952;-77
2023/03/18 09:11:12;;;;;;;;;;;;;;;5.11;59.97;99780.38;5005961;28;4853;-75
2023/03/18 09:13:39;;;;;;;;;;;;;;;5.09;60.19;99782.47;5005255;28;4879;-77
2023/03/18 09:16:06;;;;;;;;;;;;;;;5.20;59.69;99789.03;5007448;28;4744;-75
2023/03/18 09:18:34;;;;;;;;;;;;;;;5.14;60.03;99792.50;5014210;28;4660;-76
2023/03/18 09:21:03;;;;;;;;;;;;;;;5.16;59.92;99790.47;5010630;28;4842;-78
2023/03/18 09:23:30;;;;;;;;;;;;;;;5.12;60.11;99806.06;5009641;28;4840;-77
2023/03/18 09:25:57;;;;;;;;;;;;;;;5.12;60.09;99803.41;5011957;28;4763;-77
2023/03/18 09:28:23;;;;;;;;;;;;;;;5.15;59.84;99808.34;5013241;28;5006;-75
2023/03/18 09:30:50;;;;;;;;;;;;;;;5.16;60.05;99817.16;5017221;28;4891;-78
2023/03/18 09:33:16;;;;;;;;;;;;;;;5.20;60.04;99811.19;5010263;28;4765;-77
2023/03/18 09:35:43;;;;;;;;;;;;;;;5.12;59.98;99806.06;5008559;28;4924;-77
2023/03/18 09:38:10;;;;;;;;;;;;;;;5.14;59.98;99819.19;5019651;28;4865;-76
2023/03/18 09:40:36;;;;;;;;;;;;;;;5.12;60.15;99822.09;5021207;28;4767;-75
2023/03/18 09:43:04;;;;;;;;;;;;;;;5.14;60.11;99825.34;4999693;28;4857;-77
2023/03/18 09:45:31;;;;;;;;;;;;;;;5.16;59.93;99826.00;5017395;28;4830;-77
2023/03/18 09:47:58;;;;;;;;;;;;;;;5.18;60.07;99837.28;5015492;28;4671;-77
2023/03/18 09:50:24;;;;;;;;;;;;;;;5.19;59.87;99832.78;5010511;28;4990;-77
2023/03/18 09:53:08;;;;;;;;;;;;;;;5.17;59.99;99837.47;5009800;28;4925;-77
2023/03/18 09:55:39;;;;;;;;;;;;;;;5.13;60.27;99839.75;5011082;28;5042;-77
2023/03/18 09:58:05;;;;;;;;;;;;;;;5.17;60.03;99842.81;5009154;28;4874;-78
2023/03/18 10:00:32;;;;;;;;;;;;;;;5.17;60.22;99840.97;5011914;28;4925;-77
2023/03/18 10:03:05;;;;;;;;;;;;;;;5.19;60.07;99846.94;5009483;28;4981;-77
2023/03/18 10:05:32;;;;;;;;;;;;;;;5.16;60.21;99844.69;5007838;28;4927;-76
2023/03/18 10:07:59;;;;;;;;;;;;;;;5.19;60.08;99844.28;5016471;28;5148;-77
2023/03/18 10:10:25;;;;;;;;;;;;;;;5.19;60.23;99851.47;5022661;28;4930;-77
2023/03/18 10:12:52;;;;;;;;;;;;;;;5.17;60.12;99850.84;5020926;28;4723;-76
2023/03/18 10:15:18;;;;;;;;;;;;;;;5.15;60.15;99851.06;5016859;28;4648;-79
2023/03/18 10:17:45;;;;;;;;;;;;;;;5.19;60.19;99852.28;5015754;28;4753;-79
2023/03/18 10:20:12;;;;;;;;;;;;;;;5.15;60.31;99860.91;5018562;28;4911;-78
2023/03/18 10:22:39;;;;;;;;;;;;;;;5.13;60.37;99861.09;5020365;28;4920;-78
2023/03/18 10:25:26;;;;;;;;;;;;;;;5.18;60.46;99855.97;5021895;28;5038;-76
2023/03/18 10:27:52;;;;;;;;;;;;;;;5.16;60.22;99851.88;5019571;28;4997;-77
2023/03/18 10:30:19;;;;;;;;;;;;;;;5.18;60.24;99857.84;5021568;28;5212;-77
2023/03/18 10:32:45;;;;;;;;;;;;;;;5.14;60.51;99868.06;5020596;28;5176;-77
2023/03/18 10:35:12;;;;;;;;;;;;;;;5.16;60.21;99863.38;5000284;28;4776;-78
2023/03/18 10:37:39;;;;;;;;;;;;;;;5.16;60.31;99865.22;5016563;28;4975;-78
2023/03/18 10:40:23;;;;;;;;;;;;;;;5.17;60.34;99862.31;5012835;28;4865;-78
2023/03/18 10:42:50;;;;;;;;;;;;;;;5.18;60.23;99869.34;5008700;28;4952;-78
2023/03/18 10:45:17;;;;;;;;;;;;;;;5.14;60.46;99869.91;5009824;28;4958;-78
2023/03/18 10:47:44;;;;;;;;;;;;;;;5.13;60.65;99866.44;5010983;28;4867;-78
2023/03/18 10:50:24;;;;;;;;;;;;;;;5.12;60.58;99872.81;5008099;28;4551;-78
2023/03/18 10:52:50;;;;;;;;;;;;;;;5.14;60.60;99877.94;5015298;28;4833;-80
2023/03/18 10:55:17;;;;;;;;;;;;;;;5.14;60.63;99880.59;5015416;28;4917;-77
2023/03/18 10:57:44;;;;;;;;;;;;;;;5.15;60.48;99876.94;5017624;28;4965;-78
2023/03/18 11:00:31;;;;;;;;;;;;;;;5.16;60.59;99871.38;5018013;28;5274;-79
2023/03/18 11:03:18;;;;;;;;;;;;;;;5.15;60.44;99883.09;5014424;28;4790;-78
2023/03/18 11:05:44;;;;;;;;;;;;;;;5.15;60.68;99887.59;5014816;28;4919;-80
2023/03/18 11:08:12;;;;;;;;;;;;;;;5.15;60.55;99887.59;5015841;28;4816;-79
2023/03/18 11:10:52;;;;;;;;;;;;;;;5.15;60.54;99890.28;5017600;28;4838;-79
2023/03/18 11:13:40;;;;;;;;;;;;;;;5.14;60.57;99884.09;5015670;28;5030;-81
2023/03/18 11:16:21;;;;;;;;;;;;;;;5.16;60.62;99886.56;5013761;28;4998;-79
2023/03/18 11:18:47;;;;;;;;;;;;;;;5.15;60.63;99893.75;5014612;28;5003;-80
2023/03/18 11:21:19;;;;;;;;;;;;;;;5.12;60.83;99896.84;5012635;28;4971;-80
2023/03/18 11:23:47;;;;;;;;;;;;;;;5.14;60.75;99891.28;5014832;28;4931;-80
2023/03/18 11:26:16;;;;;;;;;;;;;;;5.15;60.76;99903.63;4997368;28;4824;-79
2023/03/18 11:28:43;;;;;;;;;;;;;;;5.16;60.79;99900.75;5012065;28;5095;-80
2023/03/18 11:31:11;;;;;;;;;;;;;;;5.15;60.79;99907.13;5027284;28;1630;-79
2023/03/18 11:33:37;;;;;;;;;;;;;;;5.14;61.03;99910.78;5032309;28;1564;-80
2023/03/18 11:36:08;;;;;;;;;;;;;;;5.13;60.97;99911.00;5014554;28;1586;-79
2023/03/18 11:38:35;;;;;;;;;;;;;;;5.15;60.73;99908.97;5032510;28;1370;-81
2023/03/18 11:41:01;;;;;;;;;;;;;;;5.12;60.75;99923.53;5024228;28;1781;-79
2023/03/18 11:43:53;;;;;;;;;;;;;;;5.15;61.35;99919.63;5030916;28;2006;-79
2023/03/18 11:46:19;;;;;;;;;;;;;;;5.14;60.84;99925.97;5029145;28;1952;-82
2023/03/18 11:48:46;;;;;;;;;;;;;;;5.13;61.01;99925.16;5024658;28;1517;-80
2023/03/18 11:51:12;;;;;;;;;;;;;;;5.15;60.78;99925.78;5023087;28;2206;-80
2023/03/18 11:53:39;;;;;;;;;;;;;;;5.17;61.01;99926.41;5020971;28;1531;-80
2023/03/18 11:56:05;;;;;;;;;;;;;;;5.15;60.82;99924.97;5024376;28;1202;-79
2023/03/18 11:58:32;;;;;;;;;;;;;;;5.14;61.08;99937.47;5027355;28;1137;-79
2023/03/18 12:00:58;;;;;;;;;;;;;;;5.17;61.01;99928.25;5024694;28;2079;-81
2023/03/18 12:03:26;;;;;;;;;;;;;;;5.18;60.81;99930.75;5021429;28;1521;-82
2023/03/18 12:05:52;;;;;;;;;;;;;;;5.17;60.91;99937.06;5030337;28;1968;-80
2023/03/18 12:08:19;;;;;;;;;;;;;;;5.18;60.85;99941.41;5034721;28;1422;-81
2023/03/18 12:11:06;;;;;;;;;;;;;;;5.20;60.96;99935.88;5028022;28;1686;-81
2023/03/18 12:13:58;;;;;;;;;;;;;;;5.18;61.00;99943.25;5020415;28;4985;-80
2023/03/18 12:16:25;;;;;;;;;;;;;;;5.18;60.83;99941.41;5015032;28;5068;-80
2023/03/18 12:18:51;;;;;;;;;;;;;;;5.20;60.84;99949.22;5012873;28;4980;-79
2023/03/18 12:21:18;;;;;;;;;;;;;;;5.22;60.71;99944.50;5013782;28;4328;-82
2023/03/18 12:23:46;;;;;;;;;;;;;;;5.18;60.90;99952.09;5014013;28;5000;-81
2023/03/18 12:26:13;;;;;;;;;;;;;;;5.20;60.94;99952.69;5015592;28;4873;-82
2023/03/18 12:28:40;;;;;;;;;;;;;;;5.21;60.95;99948.22;5015629;28;4965;-81
2023/03/18 12:31:07;;;;;;;;;;;;;;;5.20;61.03;99946.53;5014571;28;4451;-81
2023/03/18 12:33:37;;;;;;;;;;;;;;;5.20;60.98;99950.03;5006739;28;4798;-81
2023/03/18 12:36:04;;;;;;;;;;;;;;;5.20;61.03;99954.56;5012824;28;4952;-80
2023/03/18 12:38:30;;;;;;;;;;;;;;;5.20;61.00;99954.56;5015685;28;4937;-82
2023/03/18 12:40:57;;;;;;;;;;;;;;;5.20;61.05;99955.38;5015911;28;4342;-81
2023/03/18 12:43:23;;;;;;;;;;;;;;;5.23;60.77;99956.81;5015807;28;4155;-80
2023/03/18 12:45:50;;;;;;;;;;;;;;;5.23;61.11;99949.66;5014424;28;5040;-83
2023/03/18 12:48:17;;;;;;;;;;;;;;;5.21;61.07;99954.38;5013577;28;5015;-82
2023/03/18 12:50:43;;;;;;;;;;;;;;;5.22;61.06;99961.34;5018156;28;5004;-81
2023/03/18 12:53:10;;;;;;;;;;;;;;;5.20;61.12;99965.22;5017980;28;5055;-80
2023/03/18 12:55:37;;;;;;;;;;;;;;;5.22;61.09;99950.66;5021321;28;4944;-81
2023/03/18 12:58:03;;;;;;;;;;;;;;;5.26;61.17;99953.75;5019959;28;4924;-81
2023/03/18 13:00:38;;;;;;;;;;;;;;;5.34;60.75;99952.75;5005249;28;4267;-81
2023/03/18 13:03:25;;;;;;;;;;;;;;;5.29;60.97;99950.69;5009131;28;4312;-82
2023/03/18 13:05:51;;;;;;;;;;;;;;;5.34;60.73;99945.56;5013588;28;5127;-81
2023/03/18 13:08:18;;;;;;;;;;;;;;;5.34;60.80;99958.91;5011754;28;4826;-82
2023/03/18 13:10:45;;;;;;;;;;;;;;;5.37;60.75;99949.69;5009329;28;4981;-81
2023/03/18 13:13:12;;;;;;;;;;;;;;;5.31;60.84;99953.16;5008041;28;4889;-79
2023/03/18 13:15:38;;;;;;;;;;;;;;;5.28;60.92;99958.91;4985651;28;5096;-80
2023/03/18 13:18:05;;;;;;;;;;;;;;;5.26;61.08;99953.75;5012117;28;3849;-80